sensor_id;sensor_type;location;lat;lon;timestamp;P1;durP1;ratioP1;P2;durP2;ratioP2
52650;SDS011;38537;47.226;39.702;2023-09-19T00:00:47;25.45;;;15.95;;
52650;SDS011;38537;47.226;39.702;2023-09-19T00:03:17;25.45;;;16.00;;
52650;SDS011;38537;47.226;39.702;2023-09-19T00:05:44;23.17;;;15.10;;
52650;SDS011;38537;47.226;39.702;2023-09-19T00:08:13;24.23;;;14.82;;
52650;SDS011;38537;47.226;39.702;2023-09-19T00:10:41;23.88;;;14.48;;
52650;SDS011;38537;47.226;39.702;2023-09-19T00:13:10;24.73;;;15.95;;
52650;SDS011;38537;47.226;39.702;2023-09-19T00:15:43;23.15;;;14.95;;
52650;SDS011;38537;47.226;39.702;2023-09-19T00:18:17;22.25;;;14.63;;
52650;SDS011;38537;47.226;39.702;2023-09-19T00:20:49;23.27;;;15.70;;
52650;SDS011;38537;47.226;39.702;2023-09-19T00:23:20;19.88;;;14.43;;
52650;SDS011;38537;47.226;39.702;2023-09-19T00:25:48;23.92;;;13.95;;
52650;SDS011;38537;47.226;39.702;2023-09-19T00:28:17;18.63;;;12.63;;
52650;SDS011;38537;47.226;39.702;2023-09-19T00:30:47;19.60;;;13.38;;
52650;SDS011;38537;47.226;39.702;2023-09-19T00:33:18;26.45;;;14.15;;
52650;SDS011;38537;47.226;39.702;2023-09-19T00:35:56;27.25;;;14.27;;
52650;SDS011;38537;47.226;39.702;2023-09-19T00:38:29;19.27;;;13.40;;
52650;SDS011;38537;47.226;39.702;2023-09-19T00:40:56;23.30;;;13.07;;
52650;SDS011;38537;47.226;39.702;2023-09-19T00:43:27;18.90;;;12.05;;
52650;SDS011;38537;47.226;39.702;2023-09-19T00:45:55;18.50;;;13.07;;
52650;SDS011;38537;47.226;39.702;2023-09-19T00:48:24;18.58;;;12.60;;
52650;SDS011;38537;47.226;39.702;2023-09-19T00:50:57;21.42;;;12.60;;
52650;SDS011;38537;47.226;39.702;2023-09-19T00:53:29;20.30;;;13.10;;
52650;SDS011;38537;47.226;39.702;2023-09-19T00:55:58;18.83;;;12.35;;
52650;SDS011;38537;47.226;39.702;2023-09-19T00:58:27;19.77;;;12.90;;
52650;SDS011;38537;47.226;39.702;2023-09-19T01:01:01;18.02;;;13.00;;
52650;SDS011;38537;47.226;39.702;2023-09-19T01:03:28;21.40;;;13.48;;
52650;SDS011;38537;47.226;39.702;2023-09-19T01:05:56;23.02;;;13.77;;
52650;SDS011;38537;47.226;39.702;2023-09-19T01:08:23;17.83;;;12.77;;
52650;SDS011;38537;47.226;39.702;2023-09-19T01:10:59;21.02;;;13.70;;
52650;SDS011;38537;47.226;39.702;2023-09-19T01:13:31;19.08;;;13.27;;
52650;SDS011;38537;47.226;39.702;2023-09-19T01:21:28;16.67;;;11.90;;
52650;SDS011;38537;47.226;39.702;2023-09-19T01:24:07;18.10;;;11.45;;
52650;SDS011;38537;47.226;39.702;2023-09-19T01:27:02;15.85;;;11.70;;
52650;SDS011;38537;47.226;39.702;2023-09-19T01:30:08;14.00;;;11.93;;
52650;SDS011;38537;47.226;39.702;2023-09-19T01:32:41;12.68;;;10.20;;
52650;SDS011;38537;47.226;39.702;2023-09-19T01:35:10;16.52;;;11.60;;
52650;SDS011;38537;47.226;39.702;2023-09-19T01:37:40;22.15;;;12.90;;
52650;SDS011;38537;47.226;39.702;2023-09-19T01:40:10;14.88;;;12.40;;
52650;SDS011;38537;47.226;39.702;2023-09-19T01:42:54;18.13;;;12.32;;
52650;SDS011;38537;47.226;39.702;2023-09-19T01:45:33;16.70;;;13.20;;
52650;SDS011;38537;47.226;39.702;2023-09-19T01:51:00;16.27;;;12.70;;
52650;SDS011;38537;47.226;39.702;2023-09-19T01:56:12;16.70;;;12.98;;
52650;SDS011;38537;47.226;39.702;2023-09-19T01:58:48;16.98;;;13.43;;
52650;SDS011;38537;47.226;39.702;2023-09-19T02:01:22;20.90;;;14.65;;
52650;SDS011;38537;47.226;39.702;2023-09-19T02:03:51;21.95;;;15.20;;
52650;SDS011;38537;47.226;39.702;2023-09-19T02:06:20;23.50;;;14.70;;
52650;SDS011;38537;47.226;39.702;2023-09-19T02:08:48;19.90;;;14.02;;
52650;SDS011;38537;47.226;39.702;2023-09-19T02:11:16;22.92;;;15.07;;
52650;SDS011;38537;47.226;39.702;2023-09-19T02:14:02;21.75;;;14.73;;
52650;SDS011;38537;47.226;39.702;2023-09-19T02:16:31;27.60;;;15.95;;
52650;SDS011;38537;47.226;39.702;2023-09-19T02:18:58;24.80;;;16.15;;
52650;SDS011;38537;47.226;39.702;2023-09-19T02:21:27;26.20;;;15.40;;
52650;SDS011;38537;47.226;39.702;2023-09-19T02:23:56;26.52;;;15.52;;
52650;SDS011;38537;47.226;39.702;2023-09-19T02:26:24;29.35;;;16.27;;
52650;SDS011;38537;47.226;39.702;2023-09-19T02:28:52;27.25;;;16.42;;
52650;SDS011;38537;47.226;39.702;2023-09-19T02:31:20;26.95;;;16.10;;
52650;SDS011;38537;47.226;39.702;2023-09-19T02:33:48;32.15;;;15.88;;
52650;SDS011;38537;47.226;39.702;2023-09-19T02:36:19;32.25;;;17.33;;
52650;SDS011;38537;47.226;39.702;2023-09-19T02:38:46;35.30;;;16.90;;
52650;SDS011;38537;47.226;39.702;2023-09-19T02:41:14;36.80;;;17.17;;
52650;SDS011;38537;47.226;39.702;2023-09-19T02:43:42;32.95;;;16.65;;
52650;SDS011;38537;47.226;39.702;2023-09-19T02:46:10;37.63;;;16.45;;
52650;SDS011;38537;47.226;39.702;2023-09-19T02:48:39;28.48;;;16.10;;
52650;SDS011;38537;47.226;39.702;2023-09-19T02:51:06;28.88;;;16.42;;
52650;SDS011;38537;47.226;39.702;2023-09-19T02:53:34;27.33;;;15.30;;
52650;SDS011;38537;47.226;39.702;2023-09-19T02:56:03;24.35;;;15.32;;
52650;SDS011;38537;47.226;39.702;2023-09-19T02:58:31;27.35;;;16.23;;
52650;SDS011;38537;47.226;39.702;2023-09-19T03:01:09;31.70;;;17.83;;
52650;SDS011;38537;47.226;39.702;2023-09-19T03:03:38;24.75;;;16.35;;
52650;SDS011;38537;47.226;39.702;2023-09-19T03:06:07;25.67;;;16.60;;
52650;SDS011;38537;47.226;39.702;2023-09-19T03:08:36;22.52;;;15.50;;
52650;SDS011;38537;47.226;39.702;2023-09-19T03:11:06;24.83;;;15.32;;
52650;SDS011;38537;47.226;39.702;2023-09-19T03:13:39;24.70;;;15.50;;
52650;SDS011;38537;47.226;39.702;2023-09-19T03:16:09;20.45;;;14.77;;
52650;SDS011;38537;47.226;39.702;2023-09-19T03:18:38;23.38;;;15.90;;
52650;SDS011;38537;47.226;39.702;2023-09-19T03:21:06;19.67;;;13.43;;
52650;SDS011;38537;47.226;39.702;2023-09-19T03:23:33;18.02;;;13.80;;
52650;SDS011;38537;47.226;39.702;2023-09-19T03:26:01;21.85;;;14.25;;
52650;SDS011;38537;47.226;39.702;2023-09-19T03:28:29;22.63;;;14.18;;
52650;SDS011;38537;47.226;39.702;2023-09-19T03:31:02;18.77;;;14.23;;
52650;SDS011;38537;47.226;39.702;2023-09-19T03:33:32;25.35;;;16.15;;
52650;SDS011;38537;47.226;39.702;2023-09-19T03:36:04;23.83;;;14.98;;
52650;SDS011;38537;47.226;39.702;2023-09-19T03:38:33;24.10;;;14.57;;
52650;SDS011;38537;47.226;39.702;2023-09-19T03:41:05;27.25;;;15.30;;
52650;SDS011;38537;47.226;39.702;2023-09-19T03:43:35;20.25;;;14.70;;
52650;SDS011;38537;47.226;39.702;2023-09-19T03:46:03;21.08;;;15.18;;
52650;SDS011;38537;47.226;39.702;2023-09-19T03:48:33;21.63;;;15.25;;
52650;SDS011;38537;47.226;39.702;2023-09-19T03:51:02;21.50;;;15.38;;
52650;SDS011;38537;47.226;39.702;2023-09-19T03:53:29;21.48;;;15.15;;
52650;SDS011;38537;47.226;39.702;2023-09-19T03:55:57;22.48;;;14.98;;
52650;SDS011;38537;47.226;39.702;2023-09-19T03:58:27;19.92;;;14.57;;
52650;SDS011;38537;47.226;39.702;2023-09-19T04:00:55;30.02;;;16.48;;
52650;SDS011;38537;47.226;39.702;2023-09-19T04:03:23;20.50;;;15.23;;
52650;SDS011;38537;47.226;39.702;2023-09-19T04:05:56;22.90;;;15.20;;
52650;SDS011;38537;47.226;39.702;2023-09-19T04:08:23;23.92;;;15.57;;
52650;SDS011;38537;47.226;39.702;2023-09-19T04:10:50;25.83;;;15.55;;
52650;SDS011;38537;47.226;39.702;2023-09-19T04:13:19;24.23;;;16.60;;
52650;SDS011;38537;47.226;39.702;2023-09-19T04:15:46;25.05;;;15.98;;
52650;SDS011;38537;47.226;39.702;2023-09-19T04:18:13;24.35;;;15.38;;
52650;SDS011;38537;47.226;39.702;2023-09-19T04:20:46;26.48;;;16.27;;
52650;SDS011;38537;47.226;39.702;2023-09-19T04:23:15;30.13;;;16.25;;
52650;SDS011;38537;47.226;39.702;2023-09-19T04:25:43;27.27;;;16.27;;
52650;SDS011;38537;47.226;39.702;2023-09-19T04:28:10;24.55;;;15.60;;
52650;SDS011;38537;47.226;39.702;2023-09-19T04:30:41;25.88;;;16.73;;
52650;SDS011;38537;47.226;39.702;2023-09-19T04:33:08;28.52;;;16.55;;
52650;SDS011;38537;47.226;39.702;2023-09-19T04:35:36;25.17;;;16.23;;
52650;SDS011;38537;47.226;39.702;2023-09-19T04:38:03;29.42;;;17.48;;
52650;SDS011;38537;47.226;39.702;2023-09-19T04:40:33;26.77;;;17.98;;
52650;SDS011;38537;47.226;39.702;2023-09-19T04:43:01;30.42;;;17.60;;
52650;SDS011;38537;47.226;39.702;2023-09-19T04:45:28;34.65;;;21.27;;
52650;SDS011;38537;47.226;39.702;2023-09-19T04:47:56;26.67;;;17.85;;
52650;SDS011;38537;47.226;39.702;2023-09-19T04:50:23;31.67;;;18.90;;
52650;SDS011;38537;47.226;39.702;2023-09-19T04:52:54;38.83;;;18.92;;
52650;SDS011;38537;47.226;39.702;2023-09-19T04:55:24;33.30;;;18.27;;
52650;SDS011;38537;47.226;39.702;2023-09-19T04:57:51;31.75;;;18.92;;
52650;SDS011;38537;47.226;39.702;2023-09-19T05:00:22;37.15;;;18.63;;
52650;SDS011;38537;47.226;39.702;2023-09-19T05:02:56;35.25;;;18.67;;
52650;SDS011;38537;47.226;39.702;2023-09-19T05:05:24;39.53;;;19.05;;
52650;SDS011;38537;47.226;39.702;2023-09-19T05:07:53;39.35;;;19.60;;
52650;SDS011;38537;47.226;39.702;2023-09-19T05:10:21;44.58;;;19.52;;
52650;SDS011;38537;47.226;39.702;2023-09-19T05:12:49;43.78;;;19.77;;
52650;SDS011;38537;47.226;39.702;2023-09-19T05:15:20;35.95;;;19.67;;
52650;SDS011;38537;47.226;39.702;2023-09-19T05:17:48;48.15;;;21.13;;
52650;SDS011;38537;47.226;39.702;2023-09-19T05:20:22;42.25;;;20.27;;
52650;SDS011;38537;47.226;39.702;2023-09-19T05:23:05;43.70;;;19.55;;
52650;SDS011;38537;47.226;39.702;2023-09-19T05:25:39;38.60;;;17.42;;
52650;SDS011;38537;47.226;39.702;2023-09-19T05:28:09;44.80;;;19.50;;
52650;SDS011;38537;47.226;39.702;2023-09-19T05:30:38;40.83;;;19.63;;
52650;SDS011;38537;47.226;39.702;2023-09-19T05:33:06;54.15;;;19.83;;
52650;SDS011;38537;47.226;39.702;2023-09-19T05:35:35;50.88;;;20.65;;
52650;SDS011;38537;47.226;39.702;2023-09-19T05:38:08;34.65;;;16.27;;
52650;SDS011;38537;47.226;39.702;2023-09-19T05:40:37;47.65;;;19.75;;
52650;SDS011;38537;47.226;39.702;2023-09-19T05:43:05;54.42;;;19.05;;
52650;SDS011;38537;47.226;39.702;2023-09-19T05:45:34;50.03;;;18.38;;
52650;SDS011;38537;47.226;39.702;2023-09-19T05:48:09;60.25;;;20.30;;
52650;SDS011;38537;47.226;39.702;2023-09-19T05:50:38;42.13;;;18.38;;
52650;SDS011;38537;47.226;39.702;2023-09-19T05:53:06;35.95;;;17.05;;
52650;SDS011;38537;47.226;39.702;2023-09-19T05:55:34;51.55;;;18.98;;
52650;SDS011;38537;47.226;39.702;2023-09-19T05:58:02;45.78;;;17.83;;
52650;SDS011;38537;47.226;39.702;2023-09-19T06:00:30;28.02;;;15.00;;
52650;SDS011;38537;47.226;39.702;2023-09-19T06:02:59;23.83;;;12.55;;
52650;SDS011;38537;47.226;39.702;2023-09-19T06:05:27;26.58;;;12.38;;
52650;SDS011;38537;47.226;39.702;2023-09-19T06:07:54;30.38;;;16.70;;
52650;SDS011;38537;47.226;39.702;2023-09-19T06:10:22;27.58;;;16.20;;
52650;SDS011;38537;47.226;39.702;2023-09-19T06:12:52;19.63;;;13.00;;
52650;SDS011;38537;47.226;39.702;2023-09-19T06:15:19;19.60;;;11.80;;
52650;SDS011;38537;47.226;39.702;2023-09-19T06:17:51;16.25;;;11.18;;
52650;SDS011;38537;47.226;39.702;2023-09-19T06:20:23;16.23;;;9.85;;
52650;SDS011;38537;47.226;39.702;2023-09-19T06:22:53;16.55;;;10.18;;
52650;SDS011;38537;47.226;39.702;2023-09-19T06:25:21;17.10;;;9.65;;
52650;SDS011;38537;47.226;39.702;2023-09-19T06:27:51;14.43;;;10.70;;
52650;SDS011;38537;47.226;39.702;2023-09-19T06:30:21;18.23;;;10.90;;
52650;SDS011;38537;47.226;39.702;2023-09-19T06:32:58;13.02;;;9.55;;
52650;SDS011;38537;47.226;39.702;2023-09-19T06:35:26;17.65;;;10.52;;
52650;SDS011;38537;47.226;39.702;2023-09-19T06:37:56;14.55;;;9.63;;
52650;SDS011;38537;47.226;39.702;2023-09-19T06:40:25;14.00;;;9.20;;
52650;SDS011;38537;47.226;39.702;2023-09-19T06:42:53;16.60;;;10.50;;
52650;SDS011;38537;47.226;39.702;2023-09-19T06:45:24;12.00;;;8.65;;
52650;SDS011;38537;47.226;39.702;2023-09-19T06:47:59;16.17;;;10.25;;
52650;SDS011;38537;47.226;39.702;2023-09-19T06:50:27;16.23;;;9.48;;
52650;SDS011;38537;47.226;39.702;2023-09-19T06:52:55;12.55;;;9.40;;
52650;SDS011;38537;47.226;39.702;2023-09-19T06:55:25;16.92;;;8.32;;
52650;SDS011;38537;47.226;39.702;2023-09-19T06:57:59;11.23;;;8.00;;
52650;SDS011;38537;47.226;39.702;2023-09-19T07:00:27;15.32;;;9.25;;
52650;SDS011;38537;47.226;39.702;2023-09-19T07:03:03;13.65;;;8.15;;
52650;SDS011;38537;47.226;39.702;2023-09-19T07:05:36;11.60;;;8.25;;
52650;SDS011;38537;47.226;39.702;2023-09-19T07:08:07;11.10;;;7.70;;
52650;SDS011;38537;47.226;39.702;2023-09-19T07:10:39;8.48;;;7.38;;
52650;SDS011;38537;47.226;39.702;2023-09-19T07:13:16;9.05;;;6.70;;
52650;SDS011;38537;47.226;39.702;2023-09-19T07:15:44;9.18;;;7.20;;
52650;SDS011;38537;47.226;39.702;2023-09-19T07:18:23;10.10;;;7.20;;
52650;SDS011;38537;47.226;39.702;2023-09-19T07:20:56;7.75;;;6.38;;
52650;SDS011;38537;47.226;39.702;2023-09-19T07:23:28;8.43;;;6.13;;
52650;SDS011;38537;47.226;39.702;2023-09-19T07:25:57;10.25;;;7.30;;
52650;SDS011;38537;47.226;39.702;2023-09-19T07:28:25;7.80;;;6.28;;
52650;SDS011;38537;47.226;39.702;2023-09-19T07:31:02;10.77;;;7.05;;
52650;SDS011;38537;47.226;39.702;2023-09-19T07:33:34;10.82;;;8.02;;
52650;SDS011;38537;47.226;39.702;2023-09-19T07:36:01;10.27;;;7.65;;
52650;SDS011;38537;47.226;39.702;2023-09-19T07:38:29;11.25;;;7.35;;
52650;SDS011;38537;47.226;39.702;2023-09-19T07:40:59;9.73;;;6.90;;
52650;SDS011;38537;47.226;39.702;2023-09-19T07:43:28;9.50;;;7.07;;
52650;SDS011;38537;47.226;39.702;2023-09-19T07:45:55;8.68;;;5.93;;
52650;SDS011;38537;47.226;39.702;2023-09-19T07:48:23;11.27;;;6.85;;
52650;SDS011;38537;47.226;39.702;2023-09-19T07:50:51;8.73;;;6.88;;
52650;SDS011;38537;47.226;39.702;2023-09-19T07:53:18;8.13;;;6.72;;
52650;SDS011;38537;47.226;39.702;2023-09-19T07:55:47;10.57;;;6.80;;
52650;SDS011;38537;47.226;39.702;2023-09-19T07:58:17;9.63;;;6.88;;
52650;SDS011;38537;47.226;39.702;2023-09-19T08:00:45;8.13;;;6.63;;
52650;SDS011;38537;47.226;39.702;2023-09-19T08:03:13;8.10;;;6.32;;
52650;SDS011;38537;47.226;39.702;2023-09-19T08:05:44;10.40;;;6.40;;
52650;SDS011;38537;47.226;39.702;2023-09-19T08:08:12;6.95;;;6.25;;
52650;SDS011;38537;47.226;39.702;2023-09-19T08:10:43;7.75;;;6.78;;
52650;SDS011;38537;47.226;39.702;2023-09-19T08:13:14;6.60;;;5.88;;
52650;SDS011;38537;47.226;39.702;2023-09-19T08:15:43;7.30;;;5.72;;
52650;SDS011;38537;47.226;39.702;2023-09-19T08:18:11;9.48;;;6.20;;
52650;SDS011;38537;47.226;39.702;2023-09-19T08:20:39;8.10;;;5.63;;
52650;SDS011;38537;47.226;39.702;2023-09-19T08:23:09;6.75;;;5.63;;
52650;SDS011;38537;47.226;39.702;2023-09-19T08:25:36;6.25;;;5.13;;
52650;SDS011;38537;47.226;39.702;2023-09-19T08:28:05;5.03;;;4.35;;
52650;SDS011;38537;47.226;39.702;2023-09-19T08:30:35;4.85;;;4.35;;
52650;SDS011;38537;47.226;39.702;2023-09-19T08:33:04;5.43;;;4.40;;
52650;SDS011;38537;47.226;39.702;2023-09-19T08:35:33;5.40;;;4.90;;
52650;SDS011;38537;47.226;39.702;2023-09-19T08:38:01;6.38;;;4.90;;
52650;SDS011;38537;47.226;39.702;2023-09-19T08:40:31;10.05;;;5.63;;
52650;SDS011;38537;47.226;39.702;2023-09-19T08:43:00;5.72;;;4.80;;
52650;SDS011;38537;47.226;39.702;2023-09-19T08:45:28;5.70;;;4.30;;
52650;SDS011;38537;47.226;39.702;2023-09-19T08:48:12;6.75;;;5.47;;
52650;SDS011;38537;47.226;39.702;2023-09-19T08:50:49;5.68;;;4.43;;
52650;SDS011;38537;47.226;39.702;2023-09-19T08:53:41;5.07;;;4.57;;
52650;SDS011;38537;47.226;39.702;2023-09-19T08:56:13;5.00;;;4.28;;
52650;SDS011;38537;47.226;39.702;2023-09-19T08:58:44;5.38;;;4.80;;
52650;SDS011;38537;47.226;39.702;2023-09-19T09:01:22;5.70;;;4.40;;
52650;SDS011;38537;47.226;39.702;2023-09-19T09:03:52;6.30;;;4.22;;
52650;SDS011;38537;47.226;39.702;2023-09-19T09:06:21;5.57;;;4.10;;
52650;SDS011;38537;47.226;39.702;2023-09-19T09:08:51;7.65;;;4.03;;
52650;SDS011;38537;47.226;39.702;2023-09-19T09:11:20;6.18;;;4.50;;
52650;SDS011;38537;47.226;39.702;2023-09-19T09:13:48;6.57;;;4.53;;
52650;SDS011;38537;47.226;39.702;2023-09-19T09:16:16;5.22;;;4.30;;
52650;SDS011;38537;47.226;39.702;2023-09-19T09:18:47;4.28;;;3.85;;
52650;SDS011;38537;47.226;39.702;2023-09-19T09:21:23;5.85;;;3.95;;
52650;SDS011;38537;47.226;39.702;2023-09-19T09:23:52;5.05;;;3.97;;
52650;SDS011;38537;47.226;39.702;2023-09-19T09:29:06;4.53;;;4.00;;
52650;SDS011;38537;47.226;39.702;2023-09-19T09:31:35;4.75;;;3.85;;
52650;SDS011;38537;47.226;39.702;2023-09-19T09:34:05;6.50;;;4.40;;
52650;SDS011;38537;47.226;39.702;2023-09-19T09:36:33;6.10;;;4.20;;
52650;SDS011;38537;47.226;39.702;2023-09-19T09:39:06;5.78;;;3.90;;
52650;SDS011;38537;47.226;39.702;2023-09-19T09:41:43;6.07;;;4.22;;
52650;SDS011;38537;47.226;39.702;2023-09-19T09:44:14;4.35;;;3.95;;
52650;SDS011;38537;47.226;39.702;2023-09-19T09:46:47;5.78;;;4.28;;
52650;SDS011;38537;47.226;39.702;2023-09-19T09:49:25;4.95;;;4.20;;
52650;SDS011;38537;47.226;39.702;2023-09-19T09:52:00;5.55;;;4.80;;
52650;SDS011;38537;47.226;39.702;2023-09-19T09:55:01;8.20;;;4.68;;
52650;SDS011;38537;47.226;39.702;2023-09-19T09:57:34;4.72;;;4.10;;
52650;SDS011;38537;47.226;39.702;2023-09-19T10:00:02;5.05;;;4.55;;
52650;SDS011;38537;47.226;39.702;2023-09-19T10:02:56;5.15;;;4.50;;
52650;SDS011;38537;47.226;39.702;2023-09-19T10:05:24;6.47;;;4.60;;
52650;SDS011;38537;47.226;39.702;2023-09-19T10:07:55;5.03;;;4.43;;
52650;SDS011;38537;47.226;39.702;2023-09-19T10:10:37;6.55;;;4.70;;
52650;SDS011;38537;47.226;39.702;2023-09-19T10:13:10;5.13;;;4.30;;
52650;SDS011;38537;47.226;39.702;2023-09-19T10:15:47;5.05;;;4.50;;
52650;SDS011;38537;47.226;39.702;2023-09-19T10:18:26;5.88;;;4.60;;
52650;SDS011;38537;47.226;39.702;2023-09-19T10:20:57;5.43;;;4.30;;
52650;SDS011;38537;47.226;39.702;2023-09-19T10:23:26;4.45;;;4.05;;
52650;SDS011;38537;47.226;39.702;2023-09-19T10:25:57;4.57;;;3.97;;
52650;SDS011;38537;47.226;39.702;2023-09-19T10:28:28;5.18;;;3.90;;
52650;SDS011;38537;47.226;39.702;2023-09-19T10:31:00;6.95;;;4.60;;
52650;SDS011;38537;47.226;39.702;2023-09-19T10:33:45;4.68;;;4.28;;
52650;SDS011;38537;47.226;39.702;2023-09-19T10:36:16;8.45;;;4.55;;
52650;SDS011;38537;47.226;39.702;2023-09-19T10:38:45;5.63;;;4.07;;
52650;SDS011;38537;47.226;39.702;2023-09-19T10:41:20;4.50;;;4.10;;
52650;SDS011;38537;47.226;39.702;2023-09-19T10:43:49;4.97;;;4.10;;
52650;SDS011;38537;47.226;39.702;2023-09-19T10:46:21;4.72;;;4.07;;
52650;SDS011;38537;47.226;39.702;2023-09-19T10:48:53;5.13;;;3.83;;
52650;SDS011;38537;47.226;39.702;2023-09-19T10:51:22;4.25;;;3.67;;
52650;SDS011;38537;47.226;39.702;2023-09-19T10:54:08;4.07;;;3.70;;
52650;SDS011;38537;47.226;39.702;2023-09-19T10:56:44;4.18;;;3.70;;
52650;SDS011;38537;47.226;39.702;2023-09-19T10:59:16;4.05;;;3.70;;
52650;SDS011;38537;47.226;39.702;2023-09-19T11:01:46;4.43;;;4.03;;
52650;SDS011;38537;47.226;39.702;2023-09-19T11:04:32;4.38;;;3.97;;
52650;SDS011;38537;47.226;39.702;2023-09-19T11:07:04;6.93;;;4.28;;
52650;SDS011;38537;47.226;39.702;2023-09-19T11:09:52;5.32;;;4.30;;
52650;SDS011;38537;47.226;39.702;2023-09-19T11:14:58;4.95;;;3.80;;
52650;SDS011;38537;47.226;39.702;2023-09-19T11:17:40;4.10;;;3.80;;
52650;SDS011;38537;47.226;39.702;2023-09-19T11:30:47;5.10;;;3.90;;
52650;SDS011;38537;47.226;39.702;2023-09-19T11:33:20;3.97;;;3.60;;
52650;SDS011;38537;47.226;39.702;2023-09-19T11:36:07;4.65;;;4.13;;
52650;SDS011;38537;47.226;39.702;2023-09-19T11:43:47;4.30;;;3.90;;
52650;SDS011;38537;47.226;39.702;2023-09-19T11:46:15;4.25;;;3.83;;
52650;SDS011;38537;47.226;39.702;2023-09-19T11:48:49;4.10;;;3.70;;
52650;SDS011;38537;47.226;39.702;2023-09-19T11:51:24;6.15;;;3.78;;
52650;SDS011;38537;47.226;39.702;2023-09-19T11:53:58;5.53;;;3.72;;
52650;SDS011;38537;47.226;39.702;2023-09-19T11:56:31;5.82;;;3.70;;
52650;SDS011;38537;47.226;39.702;2023-09-19T11:59:08;7.05;;;4.10;;
52650;SDS011;38537;47.226;39.702;2023-09-19T12:01:35;5.30;;;3.80;;
52650;SDS011;38537;47.226;39.702;2023-09-19T12:04:08;8.45;;;4.18;;
52650;SDS011;38537;47.226;39.702;2023-09-19T12:06:37;5.57;;;3.60;;
52650;SDS011;38537;47.226;39.702;2023-09-19T12:09:13;4.13;;;3.60;;
52650;SDS011;38537;47.226;39.702;2023-09-19T12:11:43;5.37;;;3.97;;
52650;SDS011;38537;47.226;39.702;2023-09-19T12:14:11;4.75;;;4.00;;
52650;SDS011;38537;47.226;39.702;2023-09-19T12:16:54;4.53;;;3.72;;
52650;SDS011;38537;47.226;39.702;2023-09-19T12:19:23;5.20;;;3.80;;
52650;SDS011;38537;47.226;39.702;2023-09-19T12:21:57;6.15;;;3.65;;
52650;SDS011;38537;47.226;39.702;2023-09-19T12:24:27;4.05;;;3.67;;
52650;SDS011;38537;47.226;39.702;2023-09-19T12:27:01;6.10;;;3.60;;
52650;SDS011;38537;47.226;39.702;2023-09-19T12:29:46;7.40;;;4.10;;
52650;SDS011;38537;47.226;39.702;2023-09-19T12:32:35;4.22;;;3.80;;
52650;SDS011;38537;47.226;39.702;2023-09-19T12:35:03;7.00;;;3.92;;
52650;SDS011;38537;47.226;39.702;2023-09-19T12:40:26;5.40;;;3.63;;
52650;SDS011;38537;47.226;39.702;2023-09-19T12:43:00;4.50;;;3.65;;
52650;SDS011;38537;47.226;39.702;2023-09-19T12:45:31;6.32;;;3.55;;
52650;SDS011;38537;47.226;39.702;2023-09-19T12:53:36;5.88;;;4.45;;
52650;SDS011;38537;47.226;39.702;2023-09-19T12:56:18;3.92;;;3.53;;
52650;SDS011;38537;47.226;39.702;2023-09-19T12:58:52;4.13;;;3.55;;
52650;SDS011;38537;47.226;39.702;2023-09-19T13:01:23;5.95;;;3.72;;
52650;SDS011;38537;47.226;39.702;2023-09-19T13:06:49;8.75;;;4.20;;
52650;SDS011;38537;47.226;39.702;2023-09-19T13:09:18;4.68;;;3.67;;
52650;SDS011;38537;47.226;39.702;2023-09-19T13:11:51;5.45;;;3.75;;
52650;SDS011;38537;47.226;39.702;2023-09-19T13:14:21;4.40;;;3.78;;
52650;SDS011;38537;47.226;39.702;2023-09-19T13:17:01;4.63;;;3.65;;
52650;SDS011;38537;47.226;39.702;2023-09-19T13:22:39;6.45;;;4.00;;
52650;SDS011;38537;47.226;39.702;2023-09-19T13:25:14;3.80;;;3.40;;
52650;SDS011;38537;47.226;39.702;2023-09-19T13:27:47;5.30;;;3.63;;
52650;SDS011;38537;47.226;39.702;2023-09-19T13:30:21;6.68;;;3.60;;
52650;SDS011;38537;47.226;39.702;2023-09-19T13:32:50;6.32;;;3.72;;
52650;SDS011;38537;47.226;39.702;2023-09-19T13:35:19;5.90;;;3.70;;
52650;SDS011;38537;47.226;39.702;2023-09-19T13:37:47;6.45;;;3.90;;
52650;SDS011;38537;47.226;39.702;2023-09-19T13:40:15;6.13;;;4.10;;
52650;SDS011;38537;47.226;39.702;2023-09-19T13:42:43;4.85;;;4.22;;
52650;SDS011;38537;47.226;39.702;2023-09-19T13:45:10;6.22;;;3.72;;
52650;SDS011;38537;47.226;39.702;2023-09-19T13:47:40;8.80;;;4.00;;
52650;SDS011;38537;47.226;39.702;2023-09-19T13:50:08;6.30;;;3.78;;
52650;SDS011;38537;47.226;39.702;2023-09-19T13:52:36;7.78;;;4.07;;
52650;SDS011;38537;47.226;39.702;2023-09-19T13:55:05;5.45;;;3.97;;
52650;SDS011;38537;47.226;39.702;2023-09-19T13:57:41;4.70;;;3.60;;
52650;SDS011;38537;47.226;39.702;2023-09-19T14:00:10;4.95;;;3.60;;
52650;SDS011;38537;47.226;39.702;2023-09-19T14:02:41;8.50;;;3.70;;
52650;SDS011;38537;47.226;39.702;2023-09-19T14:05:13;5.63;;;3.65;;
52650;SDS011;38537;47.226;39.702;2023-09-19T14:07:44;4.78;;;3.78;;
52650;SDS011;38537;47.226;39.702;2023-09-19T14:10:12;7.13;;;3.58;;
52650;SDS011;38537;47.226;39.702;2023-09-19T14:12:42;5.00;;;3.67;;
52650;SDS011;38537;47.226;39.702;2023-09-19T14:15:12;4.32;;;3.67;;
52650;SDS011;38537;47.226;39.702;2023-09-19T14:17:39;5.65;;;3.88;;
52650;SDS011;38537;47.226;39.702;2023-09-19T14:20:12;4.93;;;3.90;;
52650;SDS011;38537;47.226;39.702;2023-09-19T14:22:41;6.40;;;4.15;;
52650;SDS011;38537;47.226;39.702;2023-09-19T14:25:10;4.57;;;3.80;;
52650;SDS011;38537;47.226;39.702;2023-09-19T14:27:37;5.82;;;4.25;;
52650;SDS011;38537;47.226;39.702;2023-09-19T14:30:06;5.47;;;4.05;;
52650;SDS011;38537;47.226;39.702;2023-09-19T14:32:33;5.78;;;4.20;;
52650;SDS011;38537;47.226;39.702;2023-09-19T14:35:02;5.95;;;4.03;;
52650;SDS011;38537;47.226;39.702;2023-09-19T14:37:30;6.28;;;3.90;;
52650;SDS011;38537;47.226;39.702;2023-09-19T14:39:58;8.70;;;3.88;;
52650;SDS011;38537;47.226;39.702;2023-09-19T14:42:25;5.88;;;4.25;;
52650;SDS011;38537;47.226;39.702;2023-09-19T14:44:52;8.60;;;4.35;;
52650;SDS011;38537;47.226;39.702;2023-09-19T14:47:19;8.25;;;4.38;;
52650;SDS011;38537;47.226;39.702;2023-09-19T14:49:47;9.02;;;4.63;;
52650;SDS011;38537;47.226;39.702;2023-09-19T14:52:15;9.93;;;4.47;;
52650;SDS011;38537;47.226;39.702;2023-09-19T14:54:42;7.57;;;4.63;;
52650;SDS011;38537;47.226;39.702;2023-09-19T14:57:10;7.13;;;4.45;;
52650;SDS011;38537;47.226;39.702;2023-09-19T14:59:38;7.72;;;4.43;;
52650;SDS011;38537;47.226;39.702;2023-09-19T15:02:06;5.70;;;4.60;;
52650;SDS011;38537;47.226;39.702;2023-09-19T15:04:34;5.88;;;4.20;;
52650;SDS011;38537;47.226;39.702;2023-09-19T15:07:02;6.47;;;4.28;;
52650;SDS011;38537;47.226;39.702;2023-09-19T15:09:30;6.97;;;4.55;;
52650;SDS011;38537;47.226;39.702;2023-09-19T15:12:03;6.53;;;4.93;;
52650;SDS011;38537;47.226;39.702;2023-09-19T15:14:40;6.82;;;4.57;;
52650;SDS011;38537;47.226;39.702;2023-09-19T15:17:09;7.47;;;4.80;;
52650;SDS011;38537;47.226;39.702;2023-09-19T15:19:37;6.15;;;5.10;;
52650;SDS011;38537;47.226;39.702;2023-09-19T15:22:04;10.02;;;5.70;;
52650;SDS011;38537;47.226;39.702;2023-09-19T15:24:34;10.05;;;6.43;;
52650;SDS011;38537;47.226;39.702;2023-09-19T15:27:02;15.65;;;7.07;;
52650;SDS011;38537;47.226;39.702;2023-09-19T15:29:29;11.25;;;7.30;;